Time;durP1;ratioP1;P1;durP2;ratioP2;P2;SDS_P1;SDS_P2;PMS_P1;PMS_P2;Temp;Humidity;BMP_temperature;BMP_pressure;BME280_temperature;BME280_humidity;BME280_pressure;Samples;Min_cycle;Max_cycle;Signal;HPM_P1;HPM_P2
2021/01/17 00:00:57;;;;;;;30.90;19.27;;;;;;;5.28;nan;101459.03;4977555;28;98996;-71
2021/01/17 00:03:26;;;;;;;26.77;17.47;;;;;;;5.24;nan;101457.88;4975741;28;97492;-72
2021/01/17 00:05:55;;;;;;;30.00;18.70;;;;;;;5.23;nan;101457.75;4978026;28;97281;-71
2021/01/17 00:08:22;;;;;;;29.87;18.13;;;;;;;5.19;nan;101451.38;4976219;28;98498;-71
2021/01/17 00:10:50;;;;;;;32.50;19.47;;;;;;;5.15;nan;101444.06;4977637;28;98085;-71
2021/01/17 00:13:18;;;;;;;26.65;18.17;;;;;;;5.15;nan;101449.28;4971857;28;96946;-71
2021/01/17 00:15:46;;;;;;;28.37;18.47;;;;;;;5.13;nan;101440.41;4976495;28;96769;-71
2021/01/17 00:18:14;;;;;;;29.87;18.47;;;;;;;5.12;nan;101443.81;4976700;28;99003;-71
2021/01/17 00:20:47;;;;;;;32.20;19.10;;;;;;;5.09;nan;101443.56;4976162;28;98841;-71
2021/01/17 00:23:15;;;;;;;29.65;17.58;;;;;;;5.07;nan;101447.75;4976064;28;97284;-71
2021/01/17 00:26:00;;;;;;;29.67;18.00;;;;;;;5.02;nan;101442.13;4960820;28;98095;-70
2021/01/17 00:28:28;;;;;;;30.83;19.97;;;;;;;5.00;nan;101442.75;4975231;28;98013;-71
2021/01/17 00:30:56;;;;;;;28.57;16.93;;;;;;;4.96;nan;101444.19;4976342;28;101575;-71
2021/01/17 00:33:23;;;;;;;28.80;17.67;;;;;;;4.92;nan;101446.41;4976622;28;97664;-70
2021/01/17 00:35:51;;;;;;;33.23;19.17;;;;;;;4.90;nan;101445.38;4974503;28;98143;-71
2021/01/17 00:38:19;;;;;;;32.67;19.47;;;;;;;4.91;nan;101444.59;4972849;28;97852;-71
2021/01/17 00:40:47;;;;;;;30.00;18.00;;;;;;;4.92;nan;101447.34;4959234;28;98124;-72
2021/01/17 00:43:14;;;;;;;36.25;24.88;;;;;;;5.08;nan;101450.47;4974382;28;97454;-71
2021/01/17 00:45:42;;;;;;;36.97;26.00;;;;;;;5.21;nan;101438.47;4975846;28;97489;-72
2021/01/17 00:48:10;;;;;;;35.35;24.20;;;;;;;5.35;nan;101445.75;4976319;28;97970;-71
2021/01/17 00:50:38;;;;;;;29.02;19.27;;;;;;;5.22;nan;101456.81;4957799;28;98560;-71
2021/01/17 00:53:09;;;;;;;27.40;17.50;;;;;;;5.20;nan;101447.97;4971905;28;97536;-71
2021/01/17 00:55:42;;;;;;;36.55;25.00;;;;;;;5.33;nan;101450.84;4955502;28;98050;-71
2021/01/17 00:58:19;;;;;;;38.70;26.55;;;;;;;5.43;nan;101442.09;4956856;28;99253;-71
2021/01/17 01:00:49;;;;;;;30.80;18.42;;;;;;;5.34;nan;101443.94;4961370;28;97767;-71
2021/01/17 01:03:27;;;;;;;36.70;24.95;;;;;;;5.45;nan;101440.53;4954018;28;97630;-71
2021/01/17 01:05:54;;;;;;;28.98;18.85;;;;;;;5.41;nan;101433.25;4975604;28;97614;-71
2021/01/17 01:08:23;;;;;;;29.60;18.17;;;;;;;5.37;nan;101426.88;4974994;28;97903;-71
2021/01/17 01:10:50;;;;;;;38.58;24.88;;;;;;;5.48;nan;101435.56;4973666;28;97872;-71
2021/01/17 01:13:18;;;;;;;34.38;21.15;;;;;;;5.38;nan;101426.09;4976691;28;97850;-70
2021/01/17 01:15:46;;;;;;;33.45;18.40;;;;;;;5.33;nan;101427.38;4976825;28;97308;-70
2021/01/17 01:18:14;;;;;;;33.80;19.23;;;;;;;5.29;nan;101422.72;4975126;28;98093;-70
2021/01/17 01:20:42;;;;;;;27.42;18.23;;;;;;;5.25;nan;101419.72;4975555;28;99180;-71
2021/01/17 01:23:10;;;;;;;34.97;19.05;;;;;;;5.23;nan;101421.28;4975598;28;97820;-71
2021/01/17 01:25:38;;;;;;;30.95;18.75;;;;;;;5.22;nan;101422.09;4975585;28;97341;-71
2021/01/17 01:28:24;;;;;;;28.50;18.30;;;;;;;5.16;nan;101415.56;4973767;28;98947;-71
2021/01/17 01:30:53;;;;;;;32.73;19.37;;;;;;;5.15;nan;101412.81;4955499;28;97852;-71
2021/01/17 01:33:21;;;;;;;27.50;17.97;;;;;;;5.13;nan;101414.38;4973588;28;97841;-71
2021/01/17 01:35:49;;;;;;;34.60;19.10;;;;;;;5.12;nan;101413.50;4971729;28;97772;-70
2021/01/17 01:38:17;;;;;;;38.53;25.13;;;;;;;5.27;nan;101411.28;4972786;28;98296;-71
2021/01/17 01:40:53;;;;;;;31.77;19.87;;;;;;;5.18;nan;101406.19;4975684;28;97838;-70
2021/01/17 01:43:22;;;;;;;31.05;17.92;;;;;;;5.16;nan;101399.03;4956921;28;97687;-70
2021/01/17 01:45:50;;;;;;;29.60;19.30;;;;;;;5.15;nan;101399.81;4972156;28;97435;-71
2021/01/17 01:48:18;;;;;;;36.40;19.23;;;;;;;5.11;nan;101403.84;4971816;28;99216;-71
2021/01/17 01:50:46;;;;;;;29.97;18.83;;;;;;;5.06;nan;101396.44;4975252;28;97605;-71
2021/01/17 01:53:14;;;;;;;30.90;18.60;;;;;;;5.05;nan;101392.03;4975794;28;97153;-71
2021/01/17 01:55:45;;;;;;;32.80;19.90;;;;;;;5.01;nan;101393.47;4974073;28;97504;-72
2021/01/17 01:58:14;;;;;;;29.48;19.10;;;;;;;5.01;nan;101392.53;4975866;28;97826;-71
2021/01/17 02:00:42;;;;;;;30.80;19.20;;;;;;;5.02;nan;101389.13;4974699;28;97745;-72
2021/01/17 02:03:10;;;;;;;33.33;20.10;;;;;;;4.97;nan;101387.84;4976380;28;97912;-72
2021/01/17 02:05:37;;;;;;;33.90;18.97;;;;;;;4.98;nan;101384.47;4974115;28;98900;-71
2021/01/17 02:08:23;;;;;;;37.20;18.13;;;;;;;4.96;nan;101386.03;4957035;28;99360;-71
2021/01/17 02:11:21;;;;;;;28.93;17.23;;;;;;;4.96;nan;101386.94;4975743;28;98032;-70
2021/01/17 02:13:56;;;;;;;31.37;18.73;;;;;;;4.99;nan;101383.69;4974595;28;98150;-71
2021/01/17 02:16:24;;;;;;;31.37;19.03;;;;;;;5.02;nan;101382.25;4975733;28;97808;-71
2021/01/17 02:18:53;;;;;;;34.50;20.57;;;;;;;5.01;nan;101382.13;4957630;28;99207;-70
2021/01/17 02:21:21;;;;;;;34.03;19.20;;;;;;;5.00;nan;101380.28;4957564;28;98011;-71
2021/01/17 02:23:52;;;;;;;31.73;19.13;;;;;;;5.04;nan;101377.16;4974029;28;98188;-71
2021/01/17 02:26:21;;;;;;;25.57;16.50;;;;;;;5.09;nan;101378.50;4976698;28;97904;-71
2021/01/17 02:28:50;;;;;;;34.50;19.13;;;;;;;5.11;nan;101376.88;4976067;28;100429;-71
2021/01/17 02:31:19;;;;;;;32.03;18.37;;;;;;;5.18;nan;101380.94;4950758;28;100336;-71
2021/01/17 02:33:48;;;;;;;31.97;18.27;;;;;;;5.15;nan;101372.09;4973931;28;97428;-72
2021/01/17 02:36:28;;;;;;;32.67;18.73;;;;;;;5.16;nan;101375.59;4975012;28;97346;-70
2021/01/17 02:39:06;;;;;;;29.80;18.50;;;;;;;5.20;nan;101374.16;4971600;28;97795;-71
2021/01/17 02:41:39;;;;;;;33.47;18.43;;;;;;;5.19;nan;101378.47;4970608;28;98113;-72
2021/01/17 02:44:07;;;;;;;31.20;18.30;;;;;;;5.22;nan;101375.22;4975508;28;97136;-71
2021/01/17 02:46:35;;;;;;;33.10;19.13;;;;;;;5.22;nan;101372.59;4976062;28;97398;-72
2021/01/17 02:49:03;;;;;;;30.93;18.87;;;;;;;5.22;nan;101375.22;4975059;28;99721;-71
2021/01/17 02:51:31;;;;;;;31.20;18.57;;;;;;;5.21;nan;101375.97;4969330;28;99063;-71
2021/01/17 02:54:04;;;;;;;28.17;19.63;;;;;;;5.19;nan;101373.25;4974110;28;97289;-71
2021/01/17 02:56:33;;;;;;;34.30;18.30;;;;;;;5.21;nan;101374.28;4975923;28;97497;-71
2021/01/17 02:59:01;;;;;;;30.57;18.17;;;;;;;5.19;nan;101368.03;4972204;28;99221;-72
2021/01/17 03:01:32;;;;;;;27.73;18.10;;;;;;;5.18;nan;101363.63;4969136;28;99079;-71
2021/01/17 03:04:02;;;;;;;25.83;17.30;;;;;;;5.14;nan;101364.16;4975879;28;96953;-71
2021/01/17 03:06:30;;;;;;;27.50;17.33;;;;;;;5.14;nan;101364.16;4975093;28;97206;-72
2021/01/17 03:08:59;;;;;;;26.53;17.57;;;;;;;5.13;nan;101367.53;4975286;28;98015;-71
2021/01/17 03:11:27;;;;;;;29.00;18.00;;;;;;;5.15;nan;101373.75;4974953;28;97856;-71
2021/01/17 03:13:55;;;;;;;31.47;17.50;;;;;;;5.14;nan;101366.75;4973589;28;97136;-70
2021/01/17 03:16:23;;;;;;;30.97;17.47;;;;;;;5.14;nan;101365.06;4976912;28;97650;-71
2021/01/17 03:18:51;;;;;;;30.17;17.60;;;;;;;5.16;nan;101373.00;4972742;28;98367;-71
2021/01/17 03:21:19;;;;;;;35.60;19.33;;;;;;;5.16;nan;101367.78;4976643;28;99041;-71
2021/01/17 03:23:46;;;;;;;27.43;16.47;;;;;;;5.15;nan;101369.47;4977314;28;97970;-71
2021/01/17 03:26:14;;;;;;;30.10;17.03;;;;;;;5.16;nan;101370.41;4978289;28;96984;-71
2021/01/17 03:28:41;;;;;;;35.07;18.33;;;;;;;5.16;nan;101376.50;4977660;28;98141;-71
2021/01/17 03:31:10;;;;;;;27.23;17.60;;;;;;;5.15;nan;101373.75;4977667;28;98271;-71
2021/01/17 03:33:38;;;;;;;34.75;18.70;;;;;;;5.13;nan;101367.53;4979055;28;97605;-71
2021/01/17 03:36:06;;;;;;;27.98;16.55;;;;;;;5.11;nan;101369.06;4976260;28;97981;-70
2021/01/17 03:38:34;;;;;;;28.63;17.17;;;;;;;5.09;nan;101368.06;4978666;28;97975;-70
2021/01/17 03:41:02;;;;;;;31.10;16.93;;;;;;;5.05;nan;101361.66;4977784;28;97915;-70
2021/01/17 03:43:29;;;;;;;29.40;17.33;;;;;;;5.01;nan;101363.91;4978975;28;97479;-71
2021/01/17 03:45:57;;;;;;;24.13;16.43;;;;;;;4.99;nan;101365.47;4960211;28;97818;-71
2021/01/17 03:48:25;;;;;;;26.80;16.47;;;;;;;4.97;nan;101356.59;4977887;28;99198;-70
2021/01/17 03:50:53;;;;;;;33.10;18.67;;;;;;;4.93;nan;101357.13;4978754;28;99051;-70
2021/01/17 03:53:39;;;;;;;34.23;18.70;;;;;;;4.87;nan;101357.53;4975021;28;98147;-71
2021/01/17 03:56:06;;;;;;;30.57;17.03;;;;;;;4.87;nan;101354.03;4977184;28;98009;-70
2021/01/17 03:58:37;;;;;;;24.57;17.00;;;;;;;4.86;nan;101357.41;4959521;28;98200;-71
2021/01/17 04:01:05;;;;;;;33.07;17.87;;;;;;;4.85;nan;101353.00;4978157;28;98279;-71
2021/01/17 04:03:33;;;;;;;26.30;16.50;;;;;;;4.83;nan;101354.56;4977510;28;98025;-72
2021/01/17 04:06:02;;;;;;;26.17;17.47;;;;;;;4.82;nan;101352.72;4977153;28;97261;-72
2021/01/17 04:08:29;;;;;;;32.30;19.63;;;;;;;4.79;nan;101350.78;4977384;28;98038;-72
2021/01/17 04:10:57;;;;;;;29.07;17.17;;;;;;;4.78;nan;101348.06;4977534;28;97946;-71
2021/01/17 04:13:25;;;;;;;30.37;18.80;;;;;;;4.79;nan;101347.25;4976759;28;97213;-72
2021/01/17 04:15:52;;;;;;;29.53;17.90;;;;;;;4.77;nan;101351.41;4979004;28;96810;-72
2021/01/17 04:18:20;;;;;;;32.07;19.20;;;;;;;4.75;nan;101346.09;4977387;28;98055;-71
2021/01/17 04:20:48;;;;;;;28.83;17.70;;;;;;;4.76;nan;101352.22;4977110;28;98024;-71
2021/01/17 04:23:17;;;;;;;29.90;18.40;;;;;;;4.76;nan;101352.22;4978760;28;97115;-71
2021/01/17 04:25:45;;;;;;;39.20;19.33;;;;;;;4.73;nan;101349.31;4977643;28;99027;-70
2021/01/17 04:28:13;;;;;;;30.00;18.53;;;;;;;4.68;nan;101346.34;4975974;28;98032;-71
2021/01/17 04:30:41;;;;;;;33.33;18.67;;;;;;;4.64;nan;101353.75;4976447;28;97951;-70
2021/01/17 04:33:09;;;;;;;28.83;17.77;;;;;;;4.60;nan;101354.31;4975867;28;98015;-71
2021/01/17 04:35:36;;;;;;;30.70;17.57;;;;;;;4.57;nan;101348.81;4959539;28;97789;-71
2021/01/17 04:38:23;;;;;;;38.47;24.75;;;;;;;4.72;nan;101345.84;4975612;28;98141;-70
2021/01/17 04:41:13;;;;;;;31.37;18.80;;;;;;;4.67;nan;101351.44;4955590;28;99314;-71
2021/01/17 04:43:48;;;;;;;26.87;17.70;;;;;;;4.64;nan;101354.69;4976452;28;97933;-71
2021/01/17 04:46:17;;;;;;;31.57;17.77;;;;;;;4.64;nan;101351.16;4976934;28;97750;-71
2021/01/17 04:48:47;;;;;;;27.87;17.83;;;;;;;4.62;nan;101355.31;4975065;28;99121;-71
2021/01/17 04:51:15;;;;;;;25.33;17.70;;;;;;;4.62;nan;101360.50;4976414;28;100376;-71
2021/01/17 04:53:44;;;;;;;30.27;17.73;;;;;;;4.61;nan;101346.63;4977477;28;97496;-71
2021/01/17 04:56:18;;;;;;;32.80;17.97;;;;;;;4.61;nan;101348.31;4977047;28;96737;-71
2021/01/17 04:59:08;;;;;;;33.60;18.87;;;;;;;4.58;nan;101348.06;4977195;28;99090;-71
2021/01/17 05:01:52;;;;;;;28.87;16.77;;;;;;;4.57;nan;101338.41;4970291;28;98044;-71
2021/01/17 05:04:34;;;;;;;28.03;17.00;;;;;;;4.59;nan;101342.06;4969812;28;97233;-71
2021/01/17 05:07:09;;;;;;;28.50;18.17;;;;;;;4.57;nan;101343.59;4974829;28;97309;-71
2021/01/17 05:09:45;;;;;;;26.63;17.20;;;;;;;4.56;nan;101342.69;4973745;28;97963;-70
2021/01/17 05:12:14;;;;;;;31.07;18.57;;;;;;;4.58;nan;101345.44;4974827;28;97806;-71
2021/01/17 05:14:43;;;;;;;31.43;18.60;;;;;;;4.56;nan;101341.81;4958735;28;97004;-71
2021/01/17 05:17:11;;;;;;;30.47;18.53;;;;;;;4.54;nan;101339.06;4978620;28;97008;-71
2021/01/17 05:19:40;;;;;;;28.67;17.57;;;;;;;4.53;nan;101342.44;4976866;28;99085;-70
2021/01/17 05:22:08;;;;;;;29.37;17.67;;;;;;;4.50;nan;101343.88;4949628;28;99072;-71
2021/01/17 05:24:42;;;;;;;26.27;17.03;;;;;;;4.48;nan;101348.03;4978013;28;97197;-71
2021/01/17 05:27:10;;;;;;;32.87;17.97;;;;;;;4.45;nan;101348.69;4974060;28;97814;-71
2021/01/17 05:29:38;;;;;;;32.67;18.67;;;;;;;4.44;nan;101351.13;4975203;28;98028;-72
2021/01/17 05:32:06;;;;;;;27.97;16.97;;;;;;;4.41;nan;101351.81;4974172;28;99128;-71
2021/01/17 05:34:34;;;;;;;28.20;17.27;;;;;;;4.40;nan;101359.47;4975956;28;97401;-72
2021/01/17 05:37:21;;;;;;;29.03;17.37;;;;;;;4.37;nan;101365.31;4977506;28;97188;-72
2021/01/17 05:39:57;;;;;;;28.10;16.87;;;;;;;4.33;nan;101355.41;4975173;28;97874;-72
2021/01/17 05:42:26;;;;;;;32.43;17.83;;;;;;;4.31;nan;101354.38;4975958;28;98444;-71
2021/01/17 05:44:55;;;;;;;30.60;18.47;;;;;;;4.28;nan;101363.59;4975691;28;97710;-72
2021/01/17 05:47:24;;;;;;;37.38;23.67;;;;;;;4.37;nan;101367.00;4975231;28;97332;-72
2021/01/17 05:49:52;;;;;;;39.65;25.75;;;;;;;4.46;nan;101365.19;4952214;28;98704;-73
2021/01/17 05:52:20;;;;;;;31.17;19.93;;;;;;;4.35;nan;101371.16;4972227;28;98935;-71
2021/01/17 05:54:49;;;;;;;29.90;18.10;;;;;;;4.28;nan;101374.00;4974825;28;99441;-72
2021/01/17 05:57:36;;;;;;;38.08;23.98;;;;;;;4.39;nan;101368.03;4975240;28;98038;-72
2021/01/17 06:00:05;;;;;;;30.30;18.87;;;;;;;4.26;nan;101370.34;4975022;28;97897;-72
2021/01/17 06:02:39;;;;;;;28.63;17.23;;;;;;;4.21;nan;101376.84;4974611;28;99221;-72
2021/01/17 06:05:11;;;;;;;28.63;16.73;;;;;;;4.14;nan;101375.41;4975489;28;96911;-72
2021/01/17 06:07:48;;;;;;;26.00;16.17;;;;;;;4.09;nan;101382.78;4974468;28;97859;-72
2021/01/17 06:10:21;;;;;;;28.53;17.83;;;;;;;4.06;nan;101376.41;4975917;28;99935;-72
2021/01/17 06:12:50;;;;;;;27.73;17.00;;;;;;;4.01;nan;101386.41;4975030;28;98627;-71
2021/01/17 06:15:19;;;;;;;33.60;18.70;;;;;;;3.95;nan;101385.88;4972965;28;97619;-70
2021/01/17 06:17:48;;;;;;;29.03;18.80;;;;;;;3.91;nan;101378.59;4975901;28;97835;-69
2021/01/17 06:20:20;;;;;;;28.10;16.43;;;;;;;3.87;nan;101385.94;4974812;28;98416;-70
2021/01/17 06:22:48;;;;;;;30.83;17.77;;;;;;;3.84;nan;101391.81;4975487;28;97951;-71
2021/01/17 06:25:16;;;;;;;29.70;17.47;;;;;;;3.80;nan;101394.91;4974001;28;97125;-71
2021/01/17 06:27:44;;;;;;;28.90;16.87;;;;;;;3.77;nan;101396.31;4973333;28;97683;-71
2021/01/17 06:30:22;;;;;;;36.03;23.17;;;;;;;3.91;nan;101401.97;4973920;28;99176;-70
2021/01/17 06:32:50;;;;;;;28.53;17.70;;;;;;;3.82;nan;101401.16;4974943;28;97936;-70
2021/01/17 06:35:30;;;;;;;28.67;17.07;;;;;;;3.79;nan;101400.91;4975412;28;97118;-70
2021/01/17 06:37:58;;;;;;;27.07;16.67;;;;;;;3.75;nan;101406.59;4978898;28;97088;-71
2021/01/17 06:40:32;;;;;;;30.83;16.63;;;;;;;3.74;nan;101401.25;4975877;28;98133;-71
2021/01/17 06:42:59;;;;;;;33.53;17.40;;;;;;;3.71;nan;101401.88;4978273;28;98066;-71
2021/01/17 06:45:38;;;;;;;29.63;17.90;;;;;;;3.70;nan;101406.94;4977286;28;97317;-71
2021/01/17 06:48:07;;;;;;;32.70;17.67;;;;;;;3.69;nan;101415.50;4976971;28;96851;-71
2021/01/17 06:50:35;;;;;;;30.00;17.37;;;;;;;3.68;nan;101414.59;4956478;28;99074;-71
2021/01/17 06:53:02;;;;;;;27.67;17.00;;;;;;;3.65;nan;101411.72;4977239;28;98002;-71
2021/01/17 06:55:30;;;;;;;32.60;18.57;;;;;;;3.62;nan;101408.84;4978840;28;97137;-71
2021/01/17 06:57:58;;;;;;;29.03;16.73;;;;;;;3.61;nan;101420.00;4977891;28;99360;-71
2021/01/17 07:00:25;;;;;;;27.57;15.27;;;;;;;3.55;nan;101416.88;4975954;28;99261;-71
2021/01/17 07:02:54;;;;;;;29.47;17.13;;;;;;;3.56;nan;101416.06;4976406;28;99710;-71
2021/01/17 07:05:57;;;;;;;31.03;17.67;;;;;;;3.51;nan;101424.22;4946544;28;97359;-71
2021/01/17 07:08:44;;;;;;;28.53;17.07;;;;;;;3.48;nan;101418.75;4974661;28;97775;-71
2021/01/17 07:11:22;;;;;;;37.87;22.00;;;;;;;3.48;nan;101422.28;4974715;28;99130;-72
2021/01/17 07:13:50;;;;;;;40.73;22.10;;;;;;;3.47;nan;101420.44;4976742;28;98853;-70
2021/01/17 07:16:31;;;;;;;41.20;24.57;;;;;;;3.48;nan;101419.69;4977751;28;97455;-70
2021/01/17 07:19:05;;;;;;;36.40;24.20;;;;;;;3.62;nan;101431.31;4973035;28;98456;-71
2021/01/17 07:21:40;;;;;;;30.17;17.63;;;;;;;3.59;nan;101433.63;4976326;28;98614;-70
2021/01/17 07:24:10;;;;;;;29.83;18.03;;;;;;;3.59;nan;101431.03;4977063;28;97929;-70
2021/01/17 07:27:07;;;;;;;29.53;17.80;;;;;;;3.54;nan;101428.00;4977585;28;97805;-70
2021/01/17 07:29:36;;;;;;;30.20;17.53;;;;;;;3.52;nan;101429.56;4976927;28;97911;-71
2021/01/17 07:32:22;;;;;;;28.40;19.07;;;;;;;3.51;nan;101432.94;4978024;28;97810;-70
2021/01/17 07:34:54;;;;;;;30.13;19.30;;;;;;;3.49;nan;101434.47;4959278;28;102692;-71
2021/01/17 07:37:22;;;;;;;33.77;18.70;;;;;;;3.48;nan;101434.34;4975804;28;98129;-71
2021/01/17 07:39:57;;;;;;;33.33;18.93;;;;;;;3.49;nan;101439.66;4961278;28;97564;-71
2021/01/17 07:42:25;;;;;;;31.60;19.07;;;;;;;3.48;nan;101439.53;4978487;28;98988;-71
2021/01/17 07:44:55;;;;;;;35.20;20.33;;;;;;;3.56;nan;101442.03;4977718;28;99216;-71
2021/01/17 07:47:29;;;;;;;29.60;17.97;;;;;;;3.58;nan;101437.91;4978764;28;97512;-70
2021/01/17 07:49:58;;;;;;;28.03;18.13;;;;;;;3.59;nan;101437.16;4977405;28;97908;-71
2021/01/17 07:52:26;;;;;;;32.03;19.13;;;;;;;3.59;nan;101437.16;4978029;28;97981;-70
2021/01/17 07:54:54;;;;;;;33.73;19.70;;;;;;;3.62;nan;101442.63;4977750;28;98005;-71
2021/01/17 07:57:24;;;;;;;32.03;18.87;;;;;;;3.66;nan;101439.53;4978074;28;97655;-71
2021/01/17 07:59:51;;;;;;;34.70;20.07;;;;;;;3.68;nan;101447.44;4977317;28;98008;-72
2021/01/17 08:02:25;;;;;;;32.87;19.60;;;;;;;3.66;nan;101452.50;4977433;28;98146;-71
2021/01/17 08:04:54;;;;;;;37.73;19.63;;;;;;;3.69;nan;101450.19;4976585;28;98954;-71
2021/01/17 08:07:32;;;;;;;39.23;20.10;;;;;;;3.72;nan;101447.84;4978154;28;98216;-70
2021/01/17 08:10:01;;;;;;;30.70;18.40;;;;;;;3.77;nan;101454.41;4977493;28;97565;-71
2021/01/17 08:12:31;;;;;;;30.93;18.60;;;;;;;3.83;nan;101454.94;4976079;28;98172;-70
2021/01/17 08:15:24;;;;;;;33.83;18.93;;;;;;;3.83;nan;101464.44;4978162;28;97895;-71
2021/01/17 08:17:52;;;;;;;32.10;18.37;;;;;;;3.81;nan;101461.66;4960560;28;97479;-71
2021/01/17 08:20:27;;;;;;;34.27;20.33;;;;;;;3.78;nan;101453.59;4976081;28;97865;-71
2021/01/17 08:23:11;;;;;;;31.93;19.13;;;;;;;3.79;nan;101458.06;4968897;28;98924;-72
2021/01/17 08:25:55;;;;;;;36.47;19.67;;;;;;;3.81;nan;101459.06;4975661;28;97744;-72
2021/01/17 08:28:38;;;;;;;31.50;18.77;;;;;;;3.85;nan;101463.78;4971659;28;97873;-71
2021/01/17 08:31:42;;;;;;;33.00;19.67;;;;;;;3.90;nan;101469.41;4965940;28;97324;-71
2021/01/17 08:34:15;;;;;;;39.20;22.07;;;;;;;3.93;nan;101464.47;4968802;28;98011;-72
2021/01/17 08:36:45;;;;;;;40.53;21.17;;;;;;;3.94;nan;101469.78;4972347;28;97923;-71
2021/01/17 08:39:14;;;;;;;38.77;19.87;;;;;;;3.95;nan;101475.91;4969787;28;97894;-71
2021/01/17 08:41:44;;;;;;;40.90;22.07;;;;;;;4.00;nan;101490.22;4968569;28;97443;-72
2021/01/17 08:44:14;;;;;;;39.93;23.00;;;;;;;4.02;nan;101484.41;4966461;28;98896;-72
2021/01/17 08:46:43;;;;;;;36.70;20.73;;;;;;;4.06;nan;101489.13;4976943;28;99622;-70
2021/01/17 08:49:37;;;;;;;38.43;22.40;;;;;;;4.11;nan;101493.03;4972805;28;97826;-72
2021/01/17 08:52:05;;;;;;;38.80;23.93;;;;;;;4.18;nan;101502.28;4971397;28;97735;-71
2021/01/17 08:54:48;;;;;;;36.23;20.27;;;;;;;4.22;nan;101506.06;4958584;28;101858;-71
2021/01/17 08:57:42;;;;;;;34.90;19.90;;;;;;;4.25;nan;101506.34;4970378;28;98048;-72
2021/01/17 09:00:12;;;;;;;39.83;19.53;;;;;;;4.27;nan;101497.88;4956606;28;97213;-71
2021/01/17 09:02:39;;;;;;;35.47;19.60;;;;;;;4.32;nan;101495.72;4965051;28;97799;-71
2021/01/17 09:05:18;;;;;;;35.53;19.03;;;;;;;4.35;nan;101503.78;4946775;28;98667;-71
2021/01/17 09:07:46;;;;;;;32.37;18.33;;;;;;;4.39;nan;101505.88;4947363;28;101030;-71
2021/01/17 09:10:18;;;;;;;82.07;33.93;;;;;;;4.43;nan;101507.97;4969520;28;98159;-71
2021/01/17 09:12:46;;;;;;;46.47;24.93;;;;;;;4.45;nan;101504.75;4967980;28;98450;-71
2021/01/17 09:15:17;;;;;;;33.83;19.63;;;;;;;4.49;nan;101512.03;4955146;28;97998;-71
2021/01/17 09:17:59;;;;;;;34.03;20.03;;;;;;;4.54;42.22;101522.84;5067611;27;97537;-70
2021/01/17 09:20:29;;;;;;;31.53;18.53;;;;;;;4.54;42.08;101525.44;5044769;27;97959;-72
2021/01/17 09:22:58;;;;;;;36.17;19.83;;;;;;;4.57;42.38;101525.72;5047595;27;99029;-70
2021/01/17 09:25:26;;;;;;;37.23;20.47;;;;;;;4.61;42.38;101526.13;5051478;27;97544;-71
2021/01/17 09:27:55;;;;;;;34.90;18.97;;;;;;;4.67;42.23;101526.66;5048833;27;98472;-71
2021/01/17 09:30:24;;;;;;;43.72;26.27;;;;;;;4.79;41.98;101521.63;5050637;27;98299;-71
2021/01/17 09:32:52;;;;;;;44.70;27.63;;;;;;;4.95;42.45;101527.38;5048832;27;97906;-72
2021/01/17 09:35:22;;;;;;;45.20;23.27;;;;;;;4.94;42.33;101535.97;5052891;27;100089;-71
2021/01/17 09:37:58;;;;;;;32.63;20.43;;;;;;;4.96;42.37;101539.63;5056108;27;97376;-71
2021/01/17 09:40:26;;;;;;;42.77;20.90;;;;;;;4.96;42.26;101539.63;5049576;27;97852;-71
2021/01/17 09:42:54;;;;;;;32.37;18.97;;;;;;;4.94;42.11;101538.56;5050749;27;99247;-72
2021/01/17 09:45:21;;;;;;;34.43;19.00;;;;;;;4.98;42.11;101548.47;5047315;27;99082;-71
2021/01/17 09:47:52;;;;;;;33.33;20.37;;;;;;;5.01;42.26;101547.06;5052939;27;97793;-72
2021/01/17 09:50:19;;;;;;;38.30;22.10;;;;;;;5.04;41.93;101546.38;5048751;27;97296;-72
2021/01/17 09:52:49;;;;;;;37.63;19.77;;;;;;;5.08;42.44;101552.00;5052928;27;99470;-71
2021/01/17 09:55:18;;;;;;;30.50;18.57;;;;;;;5.13;41.87;101547.19;5046657;27;101261;-73
2021/01/17 09:57:46;;;;;;;35.53;19.10;;;;;;;5.12;42.14;101551.50;5048062;27;97781;-71
2021/01/17 10:00:16;;;;;;;34.20;18.83;;;;;;;5.16;41.71;101556.16;5053007;27;98195;-71
2021/01/17 10:02:44;;;;;;;32.87;19.77;;;;;;;5.21;41.79;101551.38;5051311;27;97866;-71
2021/01/17 10:05:12;;;;;;;33.23;19.43;;;;;;;5.26;42.04;101557.88;5052339;27;98336;-71
2021/01/17 10:07:40;;;;;;;30.37;18.77;;;;;;;5.30;42.00;101548.63;5063906;27;98117;-71
2021/01/17 10:10:10;;;;;;;36.90;20.47;;;;;;;5.35;41.76;101552.53;5063608;27;97425;-72
2021/01/17 10:12:37;;;;;;;35.97;19.53;;;;;;;5.43;41.73;101556.72;5061564;27;97841;-71
2021/01/17 10:15:13;;;;;;;40.93;24.00;;;;;;;5.45;41.61;101550.88;5055283;27;98484;-71
2021/01/17 10:17:46;;;;;;;39.43;22.33;;;;;;;5.47;41.92;101556.22;5065053;27;97701;-71
2021/01/17 10:20:22;;;;;;;34.03;20.07;;;;;;;5.49;42.07;101552.03;5063852;27;98117;-71
2021/01/17 10:23:12;;;;;;;32.70;17.92;;;;;;;5.55;41.68;101553.47;5065135;27;97960;-71
2021/01/17 10:25:42;;;;;;;32.60;18.95;;;;;;;5.58;42.01;101545.94;5061849;27;97844;-71
2021/01/17 10:28:10;;;;;;;46.17;21.73;;;;;;;5.62;41.51;101555.81;5050686;27;96869;-70
2021/01/17 10:30:42;;;;;;;47.93;25.47;;;;;;;5.66;41.42;101557.91;5048165;27;97929;-72
2021/01/17 10:33:15;;;;;;;44.60;24.53;;;;;;;5.74;41.72;101555.94;5046501;27;98660;-71
2021/01/17 10:35:44;;;;;;;36.53;19.97;;;;;;;5.80;41.37;101559.06;5043156;27;97802;-71
2021/01/17 10:38:13;;;;;;;37.10;20.10;;;;;;;5.82;41.46;101550.56;5047540;27;96888;-71
2021/01/17 10:40:43;;;;;;;33.73;18.30;;;;;;;5.87;41.41;101545.78;5053563;27;98307;-71
2021/01/17 10:43:16;;;;;;;32.47;17.93;;;;;;;5.94;41.20;101553.34;5038394;27;98697;-71
2021/01/17 10:45:47;;;;;;;29.02;16.90;;;;;;;6.00;41.07;101556.47;5036556;27;99104;-72
2021/01/17 10:48:17;;;;;;;30.10;18.50;;;;;;;6.09;40.81;101557.22;5044400;27;97940;-72
2021/01/17 10:50:51;;;;;;;36.83;23.60;;;;;;;6.23;41.21;101560.97;5036778;27;98483;-72
2021/01/17 10:53:19;;;;;;;27.83;17.98;;;;;;;6.25;41.02;101559.41;5048592;27;98944;-72
2021/01/17 10:55:52;;;;;;;26.53;17.37;;;;;;;6.28;41.09;101564.88;5043920;27;99430;-72
2021/01/17 10:58:22;;;;;;;27.38;16.67;;;;;;;6.28;41.14;101557.94;5034494;27;97653;-70
2021/01/17 11:01:08;;;;;;;26.42;16.50;;;;;;;6.34;41.10;101561.06;5054224;27;97239;-72
2021/01/17 11:03:36;;;;;;;24.08;15.93;;;;;;;6.41;41.28;101562.47;5045476;27;99171;-71
2021/01/17 11:06:09;;;;;;;27.13;16.13;;;;;;;6.45;41.21;101551.50;5055377;27;97843;-72
2021/01/17 11:08:42;;;;;;;27.45;17.25;;;;;;;6.46;40.63;101561.16;5050499;27;97581;-69
2021/01/17 11:11:12;;;;;;;30.35;18.15;;;;;;;6.47;40.62;101550.84;5051040;27;97298;-69
2021/01/17 11:13:40;;;;;;;28.05;17.25;;;;;;;6.53;41.38;101561.75;5050776;27;99444;-68
2021/01/17 11:16:08;;;;;;;32.22;17.92;;;;;;;6.55;41.33;101557.59;5051715;27;96842;-68
2021/01/17 11:18:36;;;;;;;38.13;20.20;;;;;;;6.58;41.41;101554.31;5046567;27;97635;-69
2021/01/17 11:21:06;;;;;;;29.15;17.30;;;;;;;6.60;41.16;101555.34;5043339;27;97647;-70
2021/01/17 11:23:33;;;;;;;26.48;15.27;;;;;;;6.64;41.13;101547.88;5045406;27;98806;-70
2021/01/17 11:26:06;;;;;;;30.65;19.70;;;;;;;6.76;40.79;101545.34;5048389;27;98962;-71
2021/01/17 11:28:34;;;;;;;32.03;21.58;;;;;;;6.87;40.40;101549.75;5043961;27;97260;-69
2021/01/17 11:31:13;;;;;;;32.55;22.08;;;;;;;6.96;40.38;101547.84;5046585;27;98052;-70
2021/01/17 11:33:40;;;;;;;24.58;16.02;;;;;;;6.98;40.52;101541.06;5047947;27;97961;-69
2021/01/17 11:36:08;;;;;;;27.58;17.38;;;;;;;6.98;40.22;101541.97;5049695;27;98697;-68
2021/01/17 11:38:45;;;;;;;25.10;15.38;;;;;;;6.99;41.10;101540.25;5052031;27;97187;-70
2021/01/17 11:41:13;;;;;;;26.98;16.98;;;;;;;7.02;40.70;101540.50;5048529;27;99049;-69
2021/01/17 11:43:42;;;;;;;24.33;16.27;;;;;;;7.07;40.36;101533.94;5049215;27;97612;-69
2021/01/17 11:46:10;;;;;;;25.53;16.03;;;;;;;7.12;40.78;101541.34;5045305;27;98001;-70
2021/01/17 11:48:39;;;;;;;21.13;15.65;;;;;;;7.15;40.26;101538.97;5046368;27;97442;-70